Time;durP1;ratioP1;P1;durP2;ratioP2;P2;SDS_P1;SDS_P2;PMS_P1;PMS_P2;Temp;Humidity;BMP_temperature;BMP_pressure;BME280_temperature;BME280_humidity;BME280_pressure;Samples;Min_cycle;Max_cycle;Signal;HPM_P1;HPM_P2
2023/11/09 00:00:10;;;;;;;;;;;;;;;6.53;70.13;99245.16;5095833;28;19919;-70
2023/11/09 00:02:36;;;;;;;;;;;;;;;6.53;70.11;99239.97;5095511;28;20676;-69
2023/11/09 00:05:03;;;;;;;;;;;;;;;6.53;70.20;99245.16;5129053;27;19928;-70
2023/11/09 00:07:31;;;;;;;;;;;;;;;6.51;70.07;99242.56;5094331;28;19926;-70
2023/11/09 00:09:57;;;;;;;;;;;;;;;6.48;70.25;99238.25;5066177;28;19969;-69
2023/11/09 00:12:23;;;;;;;;;;;;;;;6.51;70.43;99241.72;5094927;28;19931;-68
2023/11/09 00:14:49;;;;;;;;;;;;;;;6.52;70.30;99246.84;5093713;28;19919;-69
2023/11/09 00:17:15;;;;;;;;;;;;;;;6.48;70.55;99238.25;5093306;28;19931;-69
2023/11/09 00:19:41;;;;;;;;;;;;;;;6.46;70.53;99246.88;5074318;28;19924;-69
2023/11/09 00:22:08;;;;;;;;;;;;;;;6.41;70.50;99246.88;5094134;28;20021;-70
2023/11/09 00:24:34;;;;;;;;;;;;;;;6.37;70.54;99252.94;5093694;28;20406;-69
2023/11/09 00:27:00;;;;;;;;;;;;;;;6.35;70.68;99246.03;5128215;27;20061;-69
2023/11/09 00:29:26;;;;;;;;;;;;;;;6.35;70.92;99241.72;5077156;28;20275;-72
2023/11/09 00:31:51;;;;;;;;;;;;;;;6.34;70.73;99242.59;5093305;28;20117;-70
2023/11/09 00:34:17;;;;;;;;;;;;;;;6.31;70.23;99245.16;5093434;28;19923;-70
2023/11/09 00:36:43;;;;;;;;;;;;;;;6.26;70.72;99233.97;5097485;28;19920;-70
2023/11/09 00:39:12;;;;;;;;;;;;;;;6.25;70.71;99230.53;5098007;28;19919;-70
2023/11/09 00:41:41;;;;;;;;;;;;;;;6.25;70.93;99227.06;5097243;28;19924;-70
2023/11/09 00:44:07;;;;;;;;;;;;;;;6.25;70.59;99230.53;5080160;28;20010;-70
2023/11/09 00:46:33;;;;;;;;;;;;;;;6.25;71.02;99234.81;5093192;28;20053;-70
2023/11/09 00:48:59;;;;;;;;;;;;;;;6.25;70.46;99227.94;5070869;28;19962;-71
2023/11/09 00:51:25;;;;;;;;;;;;;;;6.21;70.66;99228.81;5079276;28;19920;-69
2023/11/09 00:53:51;;;;;;;;;;;;;;;6.22;70.80;99229.66;5094445;28;19930;-71
2023/11/09 00:56:17;;;;;;;;;;;;;;;6.22;70.85;99230.53;5080128;28;20285;-70
2023/11/09 00:58:43;;;;;;;;;;;;;;;6.24;71.21;99230.53;5095345;28;19920;-70
2023/11/09 01:01:08;;;;;;;;;;;;;;;6.20;70.62;99226.22;5097397;28;19961;-69
2023/11/09 01:03:34;;;;;;;;;;;;;;;6.10;69.96;99225.34;5078401;28;19924;-71
2023/11/09 01:06:05;;;;;;;;;;;;;;;6.07;70.97;99230.53;5100466;28;19919;-70
2023/11/09 01:08:34;;;;;;;;;;;;;;;6.06;70.37;99228.81;5106833;27;19924;-71
2023/11/09 01:11:05;;;;;;;;;;;;;;;6.01;70.11;99221.03;5123740;27;20014;-71
2023/11/09 01:13:32;;;;;;;;;;;;;;;6.00;70.32;99229.66;5096454;28;20010;-70
2023/11/09 01:15:58;;;;;;;;;;;;;;;6.00;71.05;99214.16;5080535;28;19924;-70
2023/11/09 01:18:24;;;;;;;;;;;;;;;5.97;70.96;99225.31;5105290;27;19926;-70
2023/11/09 01:20:50;;;;;;;;;;;;;;;5.96;70.71;99213.28;5095563;28;19924;-69
2023/11/09 01:23:18;;;;;;;;;;;;;;;5.96;70.65;99218.44;5096474;28;19931;-69
2023/11/09 01:25:43;;;;;;;;;;;;;;;5.90;70.74;99215.00;5078340;28;19920;-71
2023/11/09 01:28:09;;;;;;;;;;;;;;;5.87;70.62;99210.66;5096619;28;19920;-69
2023/11/09 01:30:35;;;;;;;;;;;;;;;5.84;70.71;99208.97;5093678;28;19919;-69
2023/11/09 01:33:03;;;;;;;;;;;;;;;5.82;70.42;99204.66;5096376;28;20088;-70
2023/11/09 01:35:30;;;;;;;;;;;;;;;5.76;70.47;99209.81;5075440;28;19919;-70
2023/11/09 01:37:55;;;;;;;;;;;;;;;5.67;70.23;99211.50;5095364;28;20297;-69
2023/11/09 01:40:23;;;;;;;;;;;;;;;5.68;70.66;99208.06;5096045;28;20006;-70
2023/11/09 01:42:50;;;;;;;;;;;;;;;5.58;70.93;99206.34;5094726;28;20014;-70
2023/11/09 01:45:15;;;;;;;;;;;;;;;5.51;70.64;99200.31;5094623;28;20366;-71
2023/11/09 01:47:41;;;;;;;;;;;;;;;5.47;70.62;99195.13;5075727;28;19927;-69
2023/11/09 01:50:09;;;;;;;;;;;;;;;5.45;70.41;99196.84;5076010;28;19931;-69
2023/11/09 01:52:35;;;;;;;;;;;;;;;5.43;70.76;99194.25;5092967;28;20393;-71
2023/11/09 01:55:01;;;;;;;;;;;;;;;5.37;70.82;99189.09;5080857;28;19920;-71
2023/11/09 01:57:27;;;;;;;;;;;;;;;5.31;71.22;99197.69;5100444;28;19931;-70
2023/11/09 01:59:55;;;;;;;;;;;;;;;5.28;70.16;99195.09;5099165;28;20421;-69
2023/11/09 02:02:21;;;;;;;;;;;;;;;5.26;70.78;99194.22;5095673;28;19926;-70
2023/11/09 02:04:47;;;;;;;;;;;;;;;5.25;70.67;99188.22;5106981;27;20960;-69
2023/11/09 02:07:13;;;;;;;;;;;;;;;5.26;70.97;99191.63;5077528;28;20378;-71
2023/11/09 02:09:39;;;;;;;;;;;;;;;5.21;70.42;99180.44;5098696;28;19959;-69
2023/11/09 02:12:06;;;;;;;;;;;;;;;5.18;71.61;99183.88;5094220;28;21086;-71
2023/11/09 02:14:32;;;;;;;;;;;;;;;5.21;71.25;99186.47;5096053;28;19927;-70
2023/11/09 02:16:58;;;;;;;;;;;;;;;5.25;70.98;99177.00;5092833;28;19928;-69
2023/11/09 02:19:27;;;;;;;;;;;;;;;5.29;71.25;99176.16;5121911;27;20277;-71
2023/11/09 02:22:15;;;;;;;;;;;;;;;5.31;71.23;99164.13;5062205;28;20000;-70
2023/11/09 02:24:41;;;;;;;;;;;;;;;5.34;70.75;99166.72;5105687;27;19930;-72
2023/11/09 02:27:07;;;;;;;;;;;;;;;5.28;70.79;99171.88;5093934;28;21449;-70
2023/11/09 02:29:32;;;;;;;;;;;;;;;5.31;71.17;99168.41;5121749;27;19924;-70
2023/11/09 02:31:58;;;;;;;;;;;;;;;5.32;71.40;99170.13;5107510;27;20414;-70
2023/11/09 02:34:24;;;;;;;;;;;;;;;5.25;71.25;99169.28;5096284;28;19978;-71
2023/11/09 02:36:51;;;;;;;;;;;;;;;5.23;70.74;99166.69;5094210;28;19947;-70
2023/11/09 02:39:17;;;;;;;;;;;;;;;5.20;71.11;99169.25;5051629;28;19923;-71
2023/11/09 02:41:43;;;;;;;;;;;;;;;5.25;71.38;99162.41;5058828;28;19938;-70
2023/11/09 02:44:09;;;;;;;;;;;;;;;5.29;71.23;99165.84;5090290;28;19939;-70
2023/11/09 02:46:35;;;;;;;;;;;;;;;5.35;70.78;99168.44;5089880;28;19920;-70
2023/11/09 02:49:01;;;;;;;;;;;;;;;5.41;70.67;99172.75;5093525;28;20302;-71
2023/11/09 02:51:26;;;;;;;;;;;;;;;5.49;70.68;99167.59;5095306;28;19924;-70
2023/11/09 02:53:54;;;;;;;;;;;;;;;5.56;70.78;99166.75;5093489;28;20045;-71
2023/11/09 02:56:20;;;;;;;;;;;;;;;5.64;71.24;99172.78;5106692;27;19920;-71
2023/11/09 02:58:46;;;;;;;;;;;;;;;5.68;70.65;99171.09;5074465;28;19924;-71
2023/11/09 03:01:12;;;;;;;;;;;;;;;5.75;71.10;99171.94;5075182;28;20392;-71
2023/11/09 03:03:37;;;;;;;;;;;;;;;5.81;71.63;99171.97;5121746;27;19935;-71
2023/11/09 03:06:03;;;;;;;;;;;;;;;5.85;71.13;99168.50;5094561;28;19919;-70
2023/11/09 03:08:30;;;;;;;;;;;;;;;5.90;70.60;99177.09;5073948;28;19920;-71
2023/11/09 03:10:57;;;;;;;;;;;;;;;5.95;70.74;99172.81;5070349;28;20351;-71
2023/11/09 03:13:23;;;;;;;;;;;;;;;6.04;71.13;99179.72;5083702;28;19966;-71
2023/11/09 03:15:49;;;;;;;;;;;;;;;6.12;70.65;99169.38;5093806;28;19920;-69
2023/11/09 03:18:15;;;;;;;;;;;;;;;6.18;70.92;99170.22;5077501;28;19996;-71
2023/11/09 03:20:41;;;;;;;;;;;;;;;6.21;70.39;99177.13;5098481;28;20285;-70
2023/11/09 03:23:10;;;;;;;;;;;;;;;6.29;70.70;99177.97;5099214;28;21304;-71
2023/11/09 03:25:35;;;;;;;;;;;;;;;6.23;70.64;99177.13;5063986;28;19984;-70
2023/11/09 03:28:02;;;;;;;;;;;;;;;6.24;70.28;99171.97;5094002;28;19923;-71
2023/11/09 03:30:30;;;;;;;;;;;;;;;6.31;70.54;99176.25;5077798;28;19930;-70
2023/11/09 03:32:56;;;;;;;;;;;;;;;6.35;70.36;99166.78;5098938;28;20028;-71
2023/11/09 03:35:23;;;;;;;;;;;;;;;6.40;70.47;99166.75;5099530;28;19920;-71
2023/11/09 03:37:49;;;;;;;;;;;;;;;6.41;70.42;99165.91;5113649;27;19919;-71
2023/11/09 03:40:15;;;;;;;;;;;;;;;6.45;70.75;99163.31;5091792;28;19920;-70
2023/11/09 03:42:41;;;;;;;;;;;;;;;6.46;70.14;99167.59;5082836;28;20034;-71
2023/11/09 03:45:11;;;;;;;;;;;;;;;6.47;70.13;99159.00;5095107;28;19923;-72
2023/11/09 03:47:37;;;;;;;;;;;;;;;6.50;70.54;99154.69;5077755;28;19928;-70
2023/11/09 03:50:04;;;;;;;;;;;;;;;6.51;70.20;99161.56;5099572;28;19977;-71
2023/11/09 03:52:30;;;;;;;;;;;;;;;6.54;70.12;99159.81;5094854;28;19927;-70
2023/11/09 03:54:56;;;;;;;;;;;;;;;6.56;70.01;99159.84;5096539;28;19932;-71
2023/11/09 03:57:22;;;;;;;;;;;;;;;6.52;70.21;99164.13;5096592;28;19924;-71
2023/11/09 03:59:49;;;;;;;;;;;;;;;6.55;70.27;99168.47;5078364;28;19924;-70
2023/11/09 04:02:15;;;;;;;;;;;;;;;6.49;69.71;99171.94;5124058;27;20421;-70
2023/11/09 04:04:41;;;;;;;;;;;;;;;6.40;70.25;99167.63;5069410;28;19969;-71
2023/11/09 04:07:07;;;;;;;;;;;;;;;6.30;69.68;99166.78;5093407;28;19928;-71
2023/11/09 04:09:33;;;;;;;;;;;;;;;6.28;70.38;99163.34;5067097;28;19932;-70
2023/11/09 04:11:59;;;;;;;;;;;;;;;6.29;69.79;99164.19;5095106;28;19981;-73
2023/11/09 04:14:24;;;;;;;;;;;;;;;6.31;70.14;99167.66;5094674;28;19963;-71
2023/11/09 04:16:50;;;;;;;;;;;;;;;6.24;69.37;99161.63;5094626;28;19926;-70
2023/11/09 04:19:19;;;;;;;;;;;;;;;6.28;70.50;99160.78;5080577;28;19934;-71
2023/11/09 04:21:45;;;;;;;;;;;;;;;6.33;69.93;99165.94;5095982;28;19942;-70
2023/11/09 04:24:11;;;;;;;;;;;;;;;6.36;70.12;99157.28;5095367;28;20386;-71
2023/11/09 04:26:37;;;;;;;;;;;;;;;6.40;70.21;99166.75;5095925;28;19925;-70
2023/11/09 04:29:03;;;;;;;;;;;;;;;6.44;70.24;99163.31;5082295;28;19926;-71
2023/11/09 04:31:30;;;;;;;;;;;;;;;6.41;69.77;99163.31;5075644;28;20018;-71
2023/11/09 04:34:02;;;;;;;;;;;;;;;6.40;69.97;99159.84;5093585;28;19923;-70
2023/11/09 04:36:28;;;;;;;;;;;;;;;6.43;69.81;99162.44;5095753;28;19970;-71
2023/11/09 04:38:53;;;;;;;;;;;;;;;6.45;70.11;99163.31;5082091;28;19998;-71
2023/11/09 04:41:21;;;;;;;;;;;;;;;6.46;69.92;99167.59;5094760;28;19949;-70
2023/11/09 04:43:47;;;;;;;;;;;;;;;6.44;69.62;99163.31;5093793;28;19928;-70
2023/11/09 04:46:18;;;;;;;;;;;;;;;6.40;69.94;99171.94;5112654;27;20283;-71
2023/11/09 04:48:44;;;;;;;;;;;;;;;6.39;70.06;99170.22;5077703;28;19969;-69
2023/11/09 04:51:20;;;;;;;;;;;;;;;6.41;70.08;99171.91;5094802;28;19941;-70
2023/11/09 04:53:51;;;;;;;;;;;;;;;6.44;69.89;99173.66;5079786;28;20162;-70
2023/11/09 05:06:48;;;;;;;;;;;;;;;6.47;70.05;99164.16;5090626;28;19927;-69
2023/11/09 05:07:19;;;;;;;;;;;;;;;6.58;69.68;99177.06;5094801;28;19924;-71
2023/11/09 05:09:45;;;;;;;;;;;;;;;6.65;69.90;99169.28;5091505;28;19920;-71
2023/11/09 05:12:11;;;;;;;;;;;;;;;6.70;69.65;99171.00;5095612;28;19958;-71
2023/11/09 05:14:37;;;;;;;;;;;;;;;6.79;69.82;99170.09;5083362;28;20421;-71
2023/11/09 05:17:02;;;;;;;;;;;;;;;6.82;69.52;99172.69;5082598;28;19920;-71
2023/11/09 05:19:28;;;;;;;;;;;;;;;6.86;69.71;99176.97;5097235;28;20018;-70
2023/11/09 05:21:57;;;;;;;;;;;;;;;6.83;69.53;99174.41;5081086;28;20327;-71
2023/11/09 05:24:23;;;;;;;;;;;;;;;6.58;69.49;99134.84;5075973;28;19934;-71
2023/11/09 05:26:54;;;;;;;;;;;;;;;6.82;69.43;99177.00;5095355;28;19924;-71
2023/11/09 05:29:20;;;;;;;;;;;;;;;6.86;69.63;99174.41;5096328;28;19920;-70
2023/11/09 05:31:46;;;;;;;;;;;;;;;6.88;69.51;99172.66;5093197;28;19942;-70
2023/11/09 05:34:12;;;;;;;;;;;;;;;6.98;69.54;99175.19;5075523;28;20386;-73
2023/11/09 05:36:38;;;;;;;;;;;;;;;7.07;69.48;99170.00;5060982;28;19935;-72
2023/11/09 05:39:10;;;;;;;;;;;;;;;7.11;69.36;99173.41;5096353;28;19964;-71
2023/11/09 05:41:36;;;;;;;;;;;;;;;7.13;69.10;99169.97;5096882;28;19951;-70
2023/11/09 05:44:02;;;;;;;;;;;;;;;7.19;69.31;99175.09;5094477;28;19965;-71
2023/11/09 05:46:28;;;;;;;;;;;;;;;7.27;69.29;99171.63;5078534;28;20398;-71
2023/11/09 05:48:54;;;;;;;;;;;;;;;7.36;69.42;99171.59;5115863;27;19924;-71
2023/11/09 05:51:22;;;;;;;;;;;;;;;7.44;69.01;99171.53;5096318;28;19926;-71
2023/11/09 05:53:53;;;;;;;;;;;;;;;7.47;68.96;99171.50;5100702;27;19934;-69
2023/11/09 05:56:22;;;;;;;;;;;;;;;7.55;69.13;99172.31;5082881;28;19920;-71
2023/11/09 05:58:49;;;;;;;;;;;;;;;7.64;68.92;99171.38;5096200;28;20447;-71
2023/11/09 06:01:14;;;;;;;;;;;;;;;7.72;68.97;99171.34;5094485;28;20317;-72
2023/11/09 06:03:40;;;;;;;;;;;;;;;7.82;69.13;99167.81;5091480;27;20023;-71
2023/11/09 06:06:06;;;;;;;;;;;;;;;7.93;68.97;99167.72;5094581;28;19934;-71
2023/11/09 06:08:34;;;;;;;;;;;;;;;8.02;68.91;99167.66;5093371;28;20347;-71
2023/11/09 06:11:00;;;;;;;;;;;;;;;8.16;68.30;99169.25;5092177;28;19927;-72
2023/11/09 06:13:26;;;;;;;;;;;;;;;8.30;68.37;99164.78;5093283;28;19920;-71
2023/11/09 06:15:52;;;;;;;;;;;;;;;8.46;68.29;99167.25;5095026;28;19945;-72
2023/11/09 06:18:18;;;;;;;;;;;;;;;8.77;68.26;99164.34;5074581;28;20370;-71
2023/11/09 06:20:48;;;;;;;;;;;;;;;9.02;68.21;99160.56;5092863;28;19969;-71
2023/11/09 06:23:14;;;;;;;;;;;;;;;9.24;68.13;99156.84;5097812;28;20822;-71
2023/11/09 06:25:41;;;;;;;;;;;;;;;9.47;67.79;99153.91;5096644;28;20330;-71
2023/11/09 06:28:07;;;;;;;;;;;;;;;9.67;67.69;99150.16;5093613;28;19972;-72
2023/11/09 06:30:33;;;;;;;;;;;;;;;10.23;67.87;99144.88;5077297;28;19928;-71
2023/11/09 06:32:59;;;;;;;;;;;;;;;10.77;67.14;99140.47;5082726;28;20329;-72
2023/11/09 06:35:25;;;;;;;;;;;;;;;11.76;66.37;99143.47;5092773;28;20420;-71
2023/11/09 06:37:51;;;;;;;;;;;;;;;12.38;65.77;99141.09;5093971;28;20384;-71
2023/11/09 06:40:17;;;;;;;;;;;;;;;12.52;65.38;99136.34;5092888;28;19920;-71
2023/11/09 06:42:44;;;;;;;;;;;;;;;13.31;65.23;99143.69;5065972;28;20305;-71
2023/11/09 06:45:10;;;;;;;;;;;;;;;14.04;64.10;99139.63;5077983;28;20017;-70
2023/11/09 06:47:37;;;;;;;;;;;;;;;14.55;63.25;99132.66;5075146;28;20322;-72
2023/11/09 06:50:03;;;;;;;;;;;;;;;15.98;63.91;99129.00;5124155;27;19926;-71
2023/11/09 06:52:29;;;;;;;;;;;;;;;17.99;62.84;99119.84;5095116;28;19924;-70
2023/11/09 06:54:54;;;;;;;;;;;;;;;19.56;60.13;99116.84;5077430;28;20118;-71
2023/11/09 06:57:20;;;;;;;;;;;;;;;20.95;57.89;99114.88;5075601;28;20020;-71
2023/11/09 06:59:48;;;;;;;;;;;;;;;20.96;54.90;99109.47;5094590;28;19920;-70
2023/11/09 07:02:13;;;;;;;;;;;;;;;20.36;53.70;99108.69;5109209;27;20136;-71
2023/11/09 07:04:39;;;;;;;;;;;;;;;19.75;54.50;99110.50;5092335;28;20006;-71
2023/11/09 07:07:08;;;;;;;;;;;;;;;20.24;54.69;99104.16;5076096;28;20233;-71
2023/11/09 07:09:34;;;;;;;;;;;;;;;19.74;53.17;99104.38;5081023;28;19924;-70
2023/11/09 07:12:00;;;;;;;;;;;;;;;20.31;54.29;99103.69;5094749;28;19952;-71
2023/11/09 07:14:26;;;;;;;;;;;;;;;20.06;53.25;99101.66;5093901;28;19920;-71
2023/11/09 07:16:55;;;;;;;;;;;;;;;19.38;52.88;99109.03;5074298;28;19931;-71
2023/11/09 07:19:22;;;;;;;;;;;;;;;18.94;53.50;99114.97;5091867;28;19920;-71
2023/11/09 07:21:49;;;;;;;;;;;;;;;18.33;54.11;99110.25;5123035;27;19928;-70
2023/11/09 07:24:17;;;;;;;;;;;;;;;17.64;53.82;99111.06;5080214;28;19928;-71
2023/11/09 07:26:43;;;;;;;;;;;;;;;17.16;54.38;99125.56;5092193;28;19985;-71
2023/11/09 07:29:09;;;;;;;;;;;;;;;16.90;55.00;99116.22;5093057;28;20026;-72
2023/11/09 07:31:36;;;;;;;;;;;;;;;16.75;55.35;99115.16;5080644;28;19920;-72
2023/11/09 07:34:02;;;;;;;;;;;;;;;16.67;55.20;99112.00;5088258;28;19981;-73
2023/11/09 07:36:29;;;;;;;;;;;;;;;16.80;55.86;99113.16;5076752;28;20371;-72
2023/11/09 07:38:54;;;;;;;;;;;;;;;18.92;57.34;99086.03;5076161;28;20052;-72
2023/11/09 07:41:23;;;;;;;;;;;;;;;21.29;54.92;99099.47;5091527;28;20038;-73
2023/11/09 07:43:49;;;;;;;;;;;;;;;22.10;50.89;99090.59;5108041;28;19928;-72
2023/11/09 07:46:15;;;;;;;;;;;;;;;21.63;48.44;99098.16;5084257;28;19924;-72
2023/11/09 07:48:41;;;;;;;;;;;;;;;20.92;48.92;99100.88;5094195;28;19927;-73
2023/11/09 07:51:07;;;;;;;;;;;;;;;20.08;49.23;99093.66;5077619;28;19946;-72
2023/11/09 07:53:33;;;;;;;;;;;;;;;19.14;49.52;99105.13;5110173;28;19923;-71
2023/11/09 07:55:59;;;;;;;;;;;;;;;18.45;50.79;99099.97;5108154;28;20341;-70
2023/11/09 07:58:25;;;;;;;;;;;;;;;17.99;51.79;99114.56;5094756;28;19920;-72
2023/11/09 08:00:52;;;;;;;;;;;;;;;17.61;51.96;99115.56;5094962;28;19926;-70
2023/11/09 08:03:21;;;;;;;;;;;;;;;17.37;52.09;99114.09;5092340;28;19934;-73
2023/11/09 08:05:48;;;;;;;;;;;;;;;17.10;52.63;99115.31;5063016;28;19924;-72
2023/11/09 08:08:14;;;;;;;;;;;;;;;16.92;52.76;99119.63;5077104;28;19923;-72
2023/11/09 08:10:44;;;;;;;;;;;;;;;16.78;52.50;99122.03;5096936;28;20393;-71
2023/11/09 08:13:26;;;;;;;;;;;;;;;;;;;;;
2023/11/09 08:15:59;;;;;;;;;;;;;;;16.51;52.65;99125.81;5098889;28;19924;-70
2023/11/09 08:18:24;;;;;;;;;;;;;;;16.48;52.84;99125.13;5094557;28;19927;-71
2023/11/09 08:20:50;;;;;;;;;;;;;;;16.43;52.78;99130.56;5078781;28;20031;-71
2023/11/09 08:23:16;;;;;;;;;;;;;;;16.24;52.35;99126.09;5076738;28;19920;-71
2023/11/09 08:25:44;;;;;;;;;;;;;;;15.87;52.71;99127.66;5081281;28;19920;-71
2023/11/09 08:28:11;;;;;;;;;;;;;;;15.55;53.15;99097.47;5095882;28;19968;-71
2023/11/09 08:30:39;;;;;;;;;;;;;;;15.63;52.91;99126.88;5102888;27;19919;-71
2023/11/09 08:33:09;;;;;;;;;;;;;;;15.64;53.32;99128.59;5080533;28;19924;-70
2023/11/09 08:35:35;;;;;;;;;;;;;;;15.64;53.21;99125.97;5127470;27;20340;-72
2023/11/09 08:38:01;;;;;;;;;;;;;;;15.72;52.92;99125.66;5080649;28;19969;-71
2023/11/09 08:40:27;;;;;;;;;;;;;;;16.34;53.61;99117.84;5079854;28;20276;-71
2023/11/09 08:42:54;;;;;;;;;;;;;;;17.33;52.80;99117.81;5097197;28;20369;-72
2023/11/09 08:45:24;;;;;;;;;;;;;;;17.35;51.30;99111.53;5065663;28;19973;-72
2023/11/09 08:47:51;;;;;;;;;;;;;;;16.90;50.74;99118.84;5106047;27;19928;-71
2023/11/09 08:50:17;;;;;;;;;;;;;;;16.50;50.88;99111.00;5094334;28;19919;-71
2023/11/09 08:52:43;;;;;;;;;;;;;;;16.20;51.43;99119.31;5093103;28;19920;-70
2023/11/09 08:55:09;;;;;;;;;;;;;;;15.86;51.46;99109.38;5078859;28;21376;-71
2023/11/09 08:57:36;;;;;;;;;;;;;;;15.61;51.92;99121.69;5108485;27;19934;-71
2023/11/09 09:00:05;;;;;;;;;;;;;;;15.38;52.00;99119.13;5080756;28;20503;-71
2023/11/09 09:02:31;;;;;;;;;;;;;;;15.18;52.38;99115.53;5108309;27;20316;-71
2023/11/09 09:04:57;;;;;;;;;;;;;;;15.02;52.94;99125.72;5094128;28;20370;-72
2023/11/09 09:07:23;;;;;;;;;;;;;;;14.82;52.81;99122.09;5124702;27;20014;-71
2023/11/09 09:09:53;;;;;;;;;;;;;;;14.61;53.03;99116.69;5077760;28;20003;-72
2023/11/09 09:12:20;;;;;;;;;;;;;;;14.42;53.18;99115.66;5116387;27;19928;-70
2023/11/09 09:14:47;;;;;;;;;;;;;;;14.24;53.71;99132.84;5096382;28;19995;-70
2023/11/09 09:17:15;;;;;;;;;;;;;;;14.10;53.62;99125.50;5096492;28;19987;-71
2023/11/09 09:19:41;;;;;;;;;;;;;;;13.99;53.66;99131.09;5096139;28;20200;-72
2023/11/09 09:22:09;;;;;;;;;;;;;;;13.88;53.91;99125.34;5094349;28;19946;-71
2023/11/09 09:24:39;;;;;;;;;;;;;;;13.77;53.99;99130.94;5094070;28;19969;-71
2023/11/09 09:27:09;;;;;;;;;;;;;;;13.70;54.26;99135.53;5085068;28;19920;-72
2023/11/09 09:29:35;;;;;;;;;;;;;;;13.46;54.14;99132.78;5076433;28;20596;-70
2023/11/09 09:32:04;;;;;;;;;;;;;;;13.36;54.37;99133.91;5095463;28;19920;-70
2023/11/09 09:34:30;;;;;;;;;;;;;;;13.32;54.65;99134.94;5110911;27;19924;-70
2023/11/09 09:36:58;;;;;;;;;;;;;;;13.33;54.81;99136.66;5074955;28;19924;-70
2023/11/09 09:39:24;;;;;;;;;;;;;;;13.24;54.48;99125.56;5075447;28;19982;-71
2023/11/09 09:41:51;;;;;;;;;;;;;;;13.19;54.87;99130.06;5096659;28;20604;-70
2023/11/09 09:44:17;;;;;;;;;;;;;;;13.13;54.85;99130.25;5094619;28;19947;-70
2023/11/09 09:46:43;;;;;;;;;;;;;;;13.03;54.92;99134.91;5095563;28;19968;-71
2023/11/09 09:49:17;;;;;;;;;;;;;;;12.93;54.79;99131.69;5093572;28;21292;-72
2023/11/09 09:51:43;;;;;;;;;;;;;;;12.86;54.84;99135.41;5093704;28;19919;-71
2023/11/09 09:54:10;;;;;;;;;;;;;;;12.77;55.14;99127.84;5094036;28;20666;-71
2023/11/09 09:56:47;;;;;;;;;;;;;;;12.60;55.02;99129.16;5108383;27;20434;-71
2023/11/09 09:59:14;;;;;;;;;;;;;;;12.49;55.33;99126.00;5093108;28;20694;-71
2023/11/09 10:01:47;;;;;;;;;;;;;;;12.38;55.89;99131.50;5093809;28;20030;-71
2023/11/09 10:04:14;;;;;;;;;;;;;;;12.36;55.94;99133.28;5060558;28;19924;-72
2023/11/09 10:06:40;;;;;;;;;;;;;;;12.38;56.01;99133.28;5081396;28;19920;-70
2023/11/09 10:09:10;;;;;;;;;;;;;;;12.33;55.68;99130.78;5077512;28;19919;-71
2023/11/09 10:11:38;;;;;;;;;;;;;;;12.23;55.67;99135.41;5089627;28;20002;-71
2023/11/09 10:14:04;;;;;;;;;;;;;;;12.22;56.23;99133.69;5093942;28;20118;-70
2023/11/09 10:16:33;;;;;;;;;;;;;;;12.16;56.24;99132.06;5095463;28;20070;-71
2023/11/09 10:19:00;;;;;;;;;;;;;;;12.17;56.27;99138.16;5077422;28;19977;-72
2023/11/09 10:21:27;;;;;;;;;;;;;;;12.22;56.54;99138.03;5095234;28;19920;-71
2023/11/09 10:23:55;;;;;;;;;;;;;;;12.23;56.38;99131.91;5091832;28;20073;-71
2023/11/09 10:26:40;;;;;;;;;;;;;;;12.25;56.57;99130.97;5079619;28;19928;-71
2023/11/09 10:29:07;;;;;;;;;;;;;;;12.27;56.28;99136.16;5093558;28;20329;-71
2023/11/09 10:31:33;;;;;;;;;;;;;;;12.25;56.37;99130.13;5092732;28;19962;-72
2023/11/09 10:34:00;;;;;;;;;;;;;;;12.29;56.45;99127.38;5093200;28;19950;-70
2023/11/09 10:36:26;;;;;;;;;;;;;;;12.19;56.26;99128.53;5126303;27;19920;-71
2023/11/09 10:38:52;;;;;;;;;;;;;;;12.16;56.44;99131.22;5092988;28;20002;-70
2023/11/09 10:41:20;;;;;;;;;;;;;;;12.14;56.40;99133.00;5091076;28;20007;-69
2023/11/09 10:43:48;;;;;;;;;;;;;;;12.08;56.50;99123.59;5076100;28;19923;-71
2023/11/09 10:46:22;;;;;;;;;;;;;;;12.07;56.77;99123.63;5079023;28;19965;-70
2023/11/09 10:48:50;;;;;;;;;;;;;;;12.06;56.45;99128.00;5107746;27;19923;-71
2023/11/09 10:51:17;;;;;;;;;;;;;;;12.04;56.84;99125.41;5108278;27;19923;-71
2023/11/09 10:53:47;;;;;;;;;;;;;;;12.00;56.60;99131.63;5064575;28;20285;-72
2023/11/09 10:56:15;;;;;;;;;;;;;;;11.97;56.11;99131.66;5075284;28;20438;-70
2023/11/09 10:58:44;;;;;;;;;;;;;;;11.97;56.72;99136.88;5095173;28;19920;-72
2023/11/09 11:01:14;;;;;;;;;;;;;;;11.91;56.59;99131.81;5093859;28;19924;-72
2023/11/09 11:03:51;;;;;;;;;;;;;;;11.87;56.64;99141.47;5125450;27;20377;-72
2023/11/09 11:06:39;;;;;;;;;;;;;;;11.84;56.77;99133.72;5076130;28;20336;-70
2023/11/09 11:09:18;;;;;;;;;;;;;;;11.79;56.90;99138.19;5063874;28;20412;-72
2023/11/09 11:12:04;;;;;;;;;;;;;;;11.79;57.08;99134.75;5112421;28;19924;-72
2023/11/09 11:14:32;;;;;;;;;;;;;;;11.73;56.75;99144.41;5096360;27;20013;-71
2023/11/09 11:17:12;;;;;;;;;;;;;;;11.68;57.36;99135.84;5124555;27;19949;-70
2023/11/09 11:20:00;;;;;;;;;;;;;;;11.67;57.30;99143.72;5109929;27;19920;-71
2023/11/09 11:22:35;;;;;;;;;;;;;;;11.65;57.29;99143.72;5066452;28;19920;-70
2023/11/09 11:25:15;;;;;;;;;;;;;;;11.69;57.40;99140.16;5068601;28;20347;-71
2023/11/09 11:27:42;;;;;;;;;;;;;;;11.67;57.20;99139.34;5112902;28;20416;-70
2023/11/09 11:30:36;;;;;;;;;;;;;;;11.68;57.33;99142.81;5077237;28;19919;-70
2023/11/09 11:33:07;;;;;;;;;;;;;;;11.66;57.54;99140.22;5086062;28;19950;-69
2023/11/09 11:35:35;;;;;;;;;;;;;;;11.69;57.72;99139.31;5078273;28;20041;-72
2023/11/09 11:38:04;;;;;;;;;;;;;;;11.70;57.57;99143.59;5094345;28;19974;-70
2023/11/09 11:40:33;;;;;;;;;;;;;;;11.50;57.21;99111.06;5064530;28;20051;-70
2023/11/09 11:42:59;;;;;;;;;;;;;;;11.67;57.27;99143.72;5080783;28;20495;-71
2023/11/09 11:45:25;;;;;;;;;;;;;;;11.59;57.34;99147.34;5091359;28;19956;-69
2023/11/09 11:47:57;;;;;;;;;;;;;;;11.52;57.43;99142.31;5086617;28;19950;-71
2023/11/09 11:50:22;;;;;;;;;;;;;;;11.53;57.42;99147.47;5097646;28;19962;-72
2023/11/09 11:52:48;;;;;;;;;;;;;;;11.53;57.66;99142.25;5095507;28;19951;-70
2023/11/09 11:55:18;;;;;;;;;;;;;;;11.56;57.39;99155.22;5097948;28;19931;-69
2023/11/09 11:58:13;;;;;;;;;;;;;;;11.50;57.48;99151.91;5079032;28;19920;-73
2023/11/09 12:00:40;;;;;;;;;;;;;;;11.44;57.29;99161.56;5096859;27;19924;-70
2023/11/09 12:03:12;;;;;;;;;;;;;;;11.40;57.46;99162.53;5066030;28;19919;-71
2023/11/09 12:05:40;;;;;;;;;;;;;;;11.36;57.27;99165.25;5101561;28;20030;-71
2023/11/09 12:08:12;;;;;;;;;;;;;;;11.30;57.63;99161.88;5065972;28;19942;-71
2023/11/09 12:10:41;;;;;;;;;;;;;;;11.27;57.64;99166.31;5079884;28;19966;-72
2023/11/09 12:13:09;;;;;;;;;;;;;;;11.14;56.87;99165.72;5062938;28;20426;-72
2023/11/09 12:15:37;;;;;;;;;;;;;;;11.04;57.35;99170.25;5097108;28;19959;-71
2023/11/09 12:18:04;;;;;;;;;;;;;;;11.00;57.82;99171.22;5080677;28;19965;-71
2023/11/09 12:20:33;;;;;;;;;;;;;;;10.98;57.69;99171.25;5110673;27;19924;-71
2023/11/09 12:23:06;;;;;;;;;;;;;;;10.93;58.02;99167.00;5108454;27;19924;-72
2023/11/09 12:25:47;;;;;;;;;;;;;;;10.92;57.94;99173.97;5094371;28;19931;-70
2023/11/09 12:28:13;;;;;;;;;;;;;;;10.92;58.16;99180.94;5125455;27;20055;-71
2023/11/09 12:30:39;;;;;;;;;;;;;;;10.91;57.95;99179.22;5068925;28;20344;-72
2023/11/09 12:33:05;;;;;;;;;;;;;;;10.90;58.15;99178.34;5096328;28;19920;-71
2023/11/09 12:35:33;;;;;;;;;;;;;;;10.90;58.08;99180.94;5092499;28;19950;-72
2023/11/09 12:38:01;;;;;;;;;;;;;;;10.83;57.94;99182.81;5080006;28;19930;-71
2023/11/09 12:40:28;;;;;;;;;;;;;;;10.73;58.09;99178.66;5095574;28;19920;-72
2023/11/09 12:42:55;;;;;;;;;;;;;;;10.68;57.90;99190.94;5096569;28;19968;-72
2023/11/09 12:45:21;;;;;;;;;;;;;;;10.55;58.44;99183.34;5065542;28;19924;-71
2023/11/09 12:47:47;;;;;;;;;;;;;;;10.55;58.43;99185.94;5095365;28;19977;-71
2023/11/09 12:50:16;;;;;;;;;;;;;;;10.58;58.59;99186.78;5094087;28;20343;-71
2023/11/09 12:52:43;;;;;;;;;;;;;;;10.56;58.45;99184.22;5096276;28;19920;-72
2023/11/09 12:55:14;;;;;;;;;;;;;;;10.53;58.23;99197.28;5112953;27;19966;-70
2023/11/09 12:57:43;;;;;;;;;;;;;;;10.49;58.94;99193.84;5087104;28;19920;-72
2023/11/09 13:00:20;;;;;;;;;;;;;;;10.55;58.87;99192.91;5088980;28;20375;-70
2023/11/09 13:02:47;;;;;;;;;;;;;;;10.59;59.18;99186.78;5114201;27;20389;-73